sensor_id;sensor_type;location;lat;lon;timestamp;temperature;humidity
28247;DHT22;66191;53.178;22.058;2023-02-15T00:02:19;3.90;99.90
28247;DHT22;66191;53.178;22.058;2023-02-15T00:04:52;3.90;99.90
28247;DHT22;66191;53.178;22.058;2023-02-15T00:07:23;4.00;99.90
28247;DHT22;66191;53.178;22.058;2023-02-15T00:09:57;4.00;99.90
28247;DHT22;66191;53.178;22.058;2023-02-15T00:12:28;3.90;99.90
28247;DHT22;66191;53.178;22.058;2023-02-15T00:14:59;3.90;99.90
28247;DHT22;66191;53.178;22.058;2023-02-15T00:17:31;4.00;99.90
28247;DHT22;66191;53.178;22.058;2023-02-15T00:20:05;4.00;99.90
28247;DHT22;66191;53.178;22.058;2023-02-15T00:22:35;4.00;99.90
28247;DHT22;66191;53.178;22.058;2023-02-15T00:25:09;3.90;99.90
28247;DHT22;66191;53.178;22.058;2023-02-15T00:27:40;4.00;99.90
28247;DHT22;66191;53.178;22.058;2023-02-15T00:30:11;4.00;99.90
28247;DHT22;66191;53.178;22.058;2023-02-15T00:32:43;4.00;99.90
28247;DHT22;66191;53.178;22.058;2023-02-15T00:35:14;3.90;99.90
28247;DHT22;66191;53.178;22.058;2023-02-15T00:37:44;3.90;99.90
28247;DHT22;66191;53.178;22.058;2023-02-15T00:40:18;3.90;99.90
28247;DHT22;66191;53.178;22.058;2023-02-15T00:42:51;4.00;99.90
28247;DHT22;66191;53.178;22.058;2023-02-15T00:45:22;4.00;99.90
28247;DHT22;66191;53.178;22.058;2023-02-15T00:47:53;4.00;99.90
28247;DHT22;66191;53.178;22.058;2023-02-15T00:50:24;4.00;99.90
28247;DHT22;66191;53.178;22.058;2023-02-15T00:52:54;4.10;99.90
28247;DHT22;66191;53.178;22.058;2023-02-15T00:55:28;4.10;99.90
28247;DHT22;66191;53.178;22.058;2023-02-15T00:57:59;4.10;99.90
28247;DHT22;66191;53.178;22.058;2023-02-15T01:00:30;4.20;99.90
28247;DHT22;66191;53.178;22.058;2023-02-15T01:03:01;4.20;99.90
28247;DHT22;66191;53.178;22.058;2023-02-15T01:05:31;4.20;99.90
28247;DHT22;66191;53.178;22.058;2023-02-15T01:08:04;4.20;99.90
28247;DHT22;66191;53.178;22.058;2023-02-15T01:10:41;4.20;99.90
28247;DHT22;66191;53.178;22.058;2023-02-15T01:13:14;4.20;99.90
28247;DHT22;66191;53.178;22.058;2023-02-15T01:15:46;4.20;99.90
28247;DHT22;66191;53.178;22.058;2023-02-15T01:18:22;4.20;99.90
28247;DHT22;66191;53.178;22.058;2023-02-15T01:20:53;4.20;99.90
28247;DHT22;66191;53.178;22.058;2023-02-15T01:23:24;4.20;99.90
28247;DHT22;66191;53.178;22.058;2023-02-15T01:26:03;4.20;99.90
28247;DHT22;66191;53.178;22.058;2023-02-15T01:28:34;4.20;99.90
28247;DHT22;66191;53.178;22.058;2023-02-15T01:31:05;4.10;99.90
28247;DHT22;66191;53.178;22.058;2023-02-15T01:33:38;4.10;99.90
28247;DHT22;66191;53.178;22.058;2023-02-15T01:36:11;4.10;99.90
28247;DHT22;66191;53.178;22.058;2023-02-15T01:38:42;4.10;99.90
28247;DHT22;66191;53.178;22.058;2023-02-15T01:41:15;4.10;99.90
28247;DHT22;66191;53.178;22.058;2023-02-15T01:43:54;4.10;99.90
28247;DHT22;66191;53.178;22.058;2023-02-15T01:46:27;4.00;99.90
28247;DHT22;66191;53.178;22.058;2023-02-15T01:49:02;3.90;99.90
28247;DHT22;66191;53.178;22.058;2023-02-15T01:51:35;3.90;99.90
28247;DHT22;66191;53.178;22.058;2023-02-15T01:54:09;4.00;99.90
28247;DHT22;66191;53.178;22.058;2023-02-15T01:56:44;4.00;99.90
28247;DHT22;66191;53.178;22.058;2023-02-15T01:59:16;4.00;99.90
28247;DHT22;66191;53.178;22.058;2023-02-15T02:01:51;4.10;99.90
28247;DHT22;66191;53.178;22.058;2023-02-15T02:04:24;4.10;99.90
28247;DHT22;66191;53.178;22.058;2023-02-15T02:07:00;4.20;99.90
28247;DHT22;66191;53.178;22.058;2023-02-15T02:09:31;4.20;99.90
28247;DHT22;66191;53.178;22.058;2023-02-15T02:12:05;4.20;99.90
28247;DHT22;66191;53.178;22.058;2023-02-15T02:14:39;4.20;99.90
28247;DHT22;66191;53.178;22.058;2023-02-15T02:17:12;4.20;99.90
28247;DHT22;66191;53.178;22.058;2023-02-15T02:20:01;4.20;99.90
28247;DHT22;66191;53.178;22.058;2023-02-15T02:22:47;4.10;99.90
28247;DHT22;66191;53.178;22.058;2023-02-15T02:25:27;4.20;99.90
28247;DHT22;66191;53.178;22.058;2023-02-15T02:28:08;4.20;99.90
28247;DHT22;66191;53.178;22.058;2023-02-15T02:30:54;4.20;99.90
28247;DHT22;66191;53.178;22.058;2023-02-15T02:33:34;4.20;99.90
28247;DHT22;66191;53.178;22.058;2023-02-15T02:36:18;4.20;99.90
28247;DHT22;66191;53.178;22.058;2023-02-15T02:41:37;4.20;99.90
28247;DHT22;66191;53.178;22.058;2023-02-15T02:44:10;4.10;99.90
28247;DHT22;66191;53.178;22.058;2023-02-15T02:46:46;4.00;99.90
28247;DHT22;66191;53.178;22.058;2023-02-15T02:49:30;3.90;99.90
28247;DHT22;66191;53.178;22.058;2023-02-15T02:52:01;3.80;99.90
28247;DHT22;66191;53.178;22.058;2023-02-15T02:54:34;3.80;99.90
28247;DHT22;66191;53.178;22.058;2023-02-15T02:57:06;3.80;99.90
28247;DHT22;66191;53.178;22.058;2023-02-15T02:59:38;3.80;99.90
28247;DHT22;66191;53.178;22.058;2023-02-15T03:02:11;3.80;99.90
28247;DHT22;66191;53.178;22.058;2023-02-15T03:04:47;3.90;99.90
28247;DHT22;66191;53.178;22.058;2023-02-15T03:07:26;3.90;99.90
28247;DHT22;66191;53.178;22.058;2023-02-15T03:10:00;3.90;99.90
28247;DHT22;66191;53.178;22.058;2023-02-15T03:12:32;3.90;99.90
28247;DHT22;66191;53.178;22.058;2023-02-15T03:15:08;3.90;99.90
28247;DHT22;66191;53.178;22.058;2023-02-15T03:17:40;3.90;99.90
28247;DHT22;66191;53.178;22.058;2023-02-15T03:20:17;3.90;99.90
28247;DHT22;66191;53.178;22.058;2023-02-15T03:22:53;3.90;99.90
28247;DHT22;66191;53.178;22.058;2023-02-15T03:25:27;3.90;99.90
28247;DHT22;66191;53.178;22.058;2023-02-15T03:27:59;4.00;99.90
28247;DHT22;66191;53.178;22.058;2023-02-15T03:30:31;4.00;99.90
28247;DHT22;66191;53.178;22.058;2023-02-15T03:33:02;4.00;99.90
28247;DHT22;66191;53.178;22.058;2023-02-15T03:35:38;4.00;99.90
28247;DHT22;66191;53.178;22.058;2023-02-15T03:38:11;4.00;99.90
28247;DHT22;66191;53.178;22.058;2023-02-15T03:40:44;4.00;99.90
28247;DHT22;66191;53.178;22.058;2023-02-15T03:43:29;4.10;99.90
28247;DHT22;66191;53.178;22.058;2023-02-15T03:46:05;4.00;99.90
28247;DHT22;66191;53.178;22.058;2023-02-15T03:48:37;4.00;99.90
28247;DHT22;66191;53.178;22.058;2023-02-15T03:51:14;4.00;99.90
28247;DHT22;66191;53.178;22.058;2023-02-15T03:53:57;3.90;99.90
28247;DHT22;66191;53.178;22.058;2023-02-15T03:56:29;3.90;99.90
28247;DHT22;66191;53.178;22.058;2023-02-15T03:58:59;3.90;99.90
28247;DHT22;66191;53.178;22.058;2023-02-15T04:01:45;4.00;99.90
28247;DHT22;66191;53.178;22.058;2023-02-15T04:04:33;3.90;99.90
28247;DHT22;66191;53.178;22.058;2023-02-15T04:07:07;3.90;99.90
28247;DHT22;66191;53.178;22.058;2023-02-15T04:09:39;3.90;99.90
28247;DHT22;66191;53.178;22.058;2023-02-15T04:12:22;4.00;99.90
28247;DHT22;66191;53.178;22.058;2023-02-15T04:14:53;4.00;99.90
28247;DHT22;66191;53.178;22.058;2023-02-15T04:17:36;4.00;99.90
28247;DHT22;66191;53.178;22.058;2023-02-15T04:20:07;4.00;99.90
28247;DHT22;66191;53.178;22.058;2023-02-15T04:22:57;4.00;99.90
28247;DHT22;66191;53.178;22.058;2023-02-15T04:25:39;4.00;99.90
28247;DHT22;66191;53.178;22.058;2023-02-15T04:28:10;3.90;99.90
28247;DHT22;66191;53.178;22.058;2023-02-15T04:30:41;3.80;99.90
28247;DHT22;66191;53.178;22.058;2023-02-15T04:33:12;3.70;99.90
28247;DHT22;66191;53.178;22.058;2023-02-15T04:35:43;3.80;99.90
28247;DHT22;66191;53.178;22.058;2023-02-15T04:38:16;3.70;99.90
28247;DHT22;66191;53.178;22.058;2023-02-15T04:40:49;3.60;99.90
28247;DHT22;66191;53.178;22.058;2023-02-15T04:43:20;3.60;99.90
28247;DHT22;66191;53.178;22.058;2023-02-15T04:45:51;3.60;99.90
28247;DHT22;66191;53.178;22.058;2023-02-15T04:48:21;3.60;99.90
28247;DHT22;66191;53.178;22.058;2023-02-15T04:50:52;3.60;99.90
28247;DHT22;66191;53.178;22.058;2023-02-15T04:53:25;3.60;99.90
28247;DHT22;66191;53.178;22.058;2023-02-15T04:55:56;3.60;99.90
28247;DHT22;66191;53.178;22.058;2023-02-15T04:58:27;3.60;99.90
28247;DHT22;66191;53.178;22.058;2023-02-15T05:00:58;3.60;99.90
28247;DHT22;66191;53.178;22.058;2023-02-15T05:03:29;3.40;99.90
28247;DHT22;66191;53.178;22.058;2023-02-15T05:06:00;3.30;99.90
28247;DHT22;66191;53.178;22.058;2023-02-15T05:08:34;3.20;99.90
28247;DHT22;66191;53.178;22.058;2023-02-15T05:11:07;3.20;99.90
28247;DHT22;66191;53.178;22.058;2023-02-15T05:13:38;3.20;99.90
28247;DHT22;66191;53.178;22.058;2023-02-15T05:16:08;3.20;99.90
28247;DHT22;66191;53.178;22.058;2023-02-15T05:18:39;3.30;99.90
28247;DHT22;66191;53.178;22.058;2023-02-15T05:21:10;3.40;99.90
28247;DHT22;66191;53.178;22.058;2023-02-15T05:23:44;3.40;99.90
28247;DHT22;66191;53.178;22.058;2023-02-15T05:26:16;3.40;99.90
28247;DHT22;66191;53.178;22.058;2023-02-15T05:29:00;3.40;99.90
28247;DHT22;66191;53.178;22.058;2023-02-15T05:31:30;3.50;99.90
28247;DHT22;66191;53.178;22.058;2023-02-15T05:34:02;3.50;99.90
28247;DHT22;66191;53.178;22.058;2023-02-15T05:36:32;3.50;99.90
28247;DHT22;66191;53.178;22.058;2023-02-15T05:39:06;3.50;99.90
28247;DHT22;66191;53.178;22.058;2023-02-15T05:41:37;3.60;99.90
28247;DHT22;66191;53.178;22.058;2023-02-15T05:44:07;3.60;99.90
28247;DHT22;66191;53.178;22.058;2023-02-15T05:46:38;3.60;99.90
28247;DHT22;66191;53.178;22.058;2023-02-15T05:49:09;3.60;99.90
28247;DHT22;66191;53.178;22.058;2023-02-15T05:51:39;3.60;99.90
28247;DHT22;66191;53.178;22.058;2023-02-15T05:54:13;3.60;99.90
28247;DHT22;66191;53.178;22.058;2023-02-15T05:56:43;3.50;99.90
28247;DHT22;66191;53.178;22.058;2023-02-15T05:59:15;3.50;99.90
28247;DHT22;66191;53.178;22.058;2023-02-15T06:01:46;3.50;99.90
28247;DHT22;66191;53.178;22.058;2023-02-15T06:04:17;3.40;99.90
28247;DHT22;66191;53.178;22.058;2023-02-15T06:06:48;3.40;99.90
28247;DHT22;66191;53.178;22.058;2023-02-15T06:09:22;3.40;99.90
28247;DHT22;66191;53.178;22.058;2023-02-15T06:11:53;3.40;99.90
28247;DHT22;66191;53.178;22.058;2023-02-15T06:14:24;3.40;99.90
28247;DHT22;66191;53.178;22.058;2023-02-15T06:16:55;3.40;99.90
28247;DHT22;66191;53.178;22.058;2023-02-15T06:19:25;3.50;99.90
28247;DHT22;66191;53.178;22.058;2023-02-15T06:21:56;3.50;99.90
28247;DHT22;66191;53.178;22.058;2023-02-15T06:24:30;3.50;99.90
28247;DHT22;66191;53.178;22.058;2023-02-15T06:27:01;3.50;99.90
28247;DHT22;66191;53.178;22.058;2023-02-15T06:29:35;3.50;99.90
28247;DHT22;66191;53.178;22.058;2023-02-15T06:32:05;3.50;99.90
28247;DHT22;66191;53.178;22.058;2023-02-15T06:34:37;3.50;99.90
28247;DHT22;66191;53.178;22.058;2023-02-15T06:37:08;3.50;99.90
28247;DHT22;66191;53.178;22.058;2023-02-15T06:39:44;3.60;99.90
28247;DHT22;66191;53.178;22.058;2023-02-15T06:42:14;3.50;99.90
28247;DHT22;66191;53.178;22.058;2023-02-15T06:44:46;3.60;99.90
28247;DHT22;66191;53.178;22.058;2023-02-15T06:47:17;3.60;99.90
28247;DHT22;66191;53.178;22.058;2023-02-15T06:49:48;3.60;99.90
28247;DHT22;66191;53.178;22.058;2023-02-15T06:52:18;3.60;99.90
28247;DHT22;66191;53.178;22.058;2023-02-15T06:54:52;3.60;99.90
28247;DHT22;66191;53.178;22.058;2023-02-15T06:57:23;3.60;99.90
28247;DHT22;66191;53.178;22.058;2023-02-15T06:59:54;3.60;99.90
28247;DHT22;66191;53.178;22.058;2023-02-15T07:02:25;3.60;99.90
28247;DHT22;66191;53.178;22.058;2023-02-15T07:04:57;3.70;99.90
28247;DHT22;66191;53.178;22.058;2023-02-15T07:07:27;3.70;99.90
28247;DHT22;66191;53.178;22.058;2023-02-15T07:10:02;3.70;99.90
28247;DHT22;66191;53.178;22.058;2023-02-15T07:12:33;3.70;99.90
28247;DHT22;66191;53.178;22.058;2023-02-15T07:15:15;3.70;99.90
28247;DHT22;66191;53.178;22.058;2023-02-15T07:17:46;3.70;99.90
28247;DHT22;66191;53.178;22.058;2023-02-15T07:20:18;3.70;99.90
28247;DHT22;66191;53.178;22.058;2023-02-15T07:22:49;3.80;99.90
28247;DHT22;66191;53.178;22.058;2023-02-15T07:25:23;3.70;99.90
28247;DHT22;66191;53.178;22.058;2023-02-15T07:27:55;3.80;99.90
28247;DHT22;66191;53.178;22.058;2023-02-15T07:30:26;3.80;99.90
28247;DHT22;66191;53.178;22.058;2023-02-15T07:32:59;3.80;99.90
28247;DHT22;66191;53.178;22.058;2023-02-15T07:35:46;3.80;99.90
28247;DHT22;66191;53.178;22.058;2023-02-15T07:38:16;3.80;99.90
28247;DHT22;66191;53.178;22.058;2023-02-15T07:40:50;3.80;99.90
28247;DHT22;66191;53.178;22.058;2023-02-15T07:43:21;3.80;99.90
28247;DHT22;66191;53.178;22.058;2023-02-15T07:45:52;3.80;99.90
28247;DHT22;66191;53.178;22.058;2023-02-15T07:48:23;3.80;99.90
28247;DHT22;66191;53.178;22.058;2023-02-15T07:50:56;3.80;99.90
28247;DHT22;66191;53.178;22.058;2023-02-15T07:53:28;3.80;99.90
28247;DHT22;66191;53.178;22.058;2023-02-15T07:56:02;3.80;99.90
28247;DHT22;66191;53.178;22.058;2023-02-15T07:58:35;3.80;99.90
28247;DHT22;66191;53.178;22.058;2023-02-15T08:01:19;3.90;99.90
28247;DHT22;66191;53.178;22.058;2023-02-15T08:03:50;3.90;99.90
28247;DHT22;66191;53.178;22.058;2023-02-15T08:06:23;3.90;99.90
28247;DHT22;66191;53.178;22.058;2023-02-15T08:08:55;4.00;99.90
28247;DHT22;66191;53.178;22.058;2023-02-15T08:11:32;4.00;99.90
28247;DHT22;66191;53.178;22.058;2023-02-15T08:14:04;4.00;99.90
28247;DHT22;66191;53.178;22.058;2023-02-15T08:16:36;4.00;99.90
28247;DHT22;66191;53.178;22.058;2023-02-15T08:19:08;4.00;99.90
28247;DHT22;66191;53.178;22.058;2023-02-15T08:21:41;4.00;99.90
28247;DHT22;66191;53.178;22.058;2023-02-15T08:24:13;4.00;99.90
28247;DHT22;66191;53.178;22.058;2023-02-15T08:26:47;3.90;99.90
28247;DHT22;66191;53.178;22.058;2023-02-15T08:29:19;3.90;99.90
28247;DHT22;66191;53.178;22.058;2023-02-15T08:31:53;3.90;99.90
28247;DHT22;66191;53.178;22.058;2023-02-15T08:34:26;3.90;99.90
28247;DHT22;66191;53.178;22.058;2023-02-15T08:36:57;3.80;99.90
28247;DHT22;66191;53.178;22.058;2023-02-15T08:39:28;3.90;99.90
28247;DHT22;66191;53.178;22.058;2023-02-15T08:42:03;3.90;99.90
28247;DHT22;66191;53.178;22.058;2023-02-15T08:44:34;4.00;99.90
28247;DHT22;66191;53.178;22.058;2023-02-15T08:47:07;3.90;99.90
28247;DHT22;66191;53.178;22.058;2023-02-15T08:49:38;4.00;99.90
28247;DHT22;66191;53.178;22.058;2023-02-15T08:52:08;3.90;99.90
28247;DHT22;66191;53.178;22.058;2023-02-15T08:54:39;4.00;99.90
28247;DHT22;66191;53.178;22.058;2023-02-15T08:57:13;4.00;99.90
28247;DHT22;66191;53.178;22.058;2023-02-15T08:59:43;4.00;99.90
28247;DHT22;66191;53.178;22.058;2023-02-15T09:02:15;4.00;99.90
28247;DHT22;66191;53.178;22.058;2023-02-15T09:04:48;3.90;99.90
28247;DHT22;66191;53.178;22.058;2023-02-15T09:07:20;3.90;99.90
28247;DHT22;66191;53.178;22.058;2023-02-15T09:09:50;3.80;99.90
28247;DHT22;66191;53.178;22.058;2023-02-15T09:12:24;3.80;99.90
28247;DHT22;66191;53.178;22.058;2023-02-15T09:14:54;3.80;99.90
28247;DHT22;66191;53.178;22.058;2023-02-15T09:17:25;3.80;99.90
28247;DHT22;66191;53.178;22.058;2023-02-15T09:19:56;3.80;99.90
28247;DHT22;66191;53.178;22.058;2023-02-15T09:22:27;3.80;99.90
28247;DHT22;66191;53.178;22.058;2023-02-15T09:24:58;3.80;99.90
28247;DHT22;66191;53.178;22.058;2023-02-15T09:27:32;3.90;99.90
28247;DHT22;66191;53.178;22.058;2023-02-15T09:30:05;3.90;99.90
28247;DHT22;66191;53.178;22.058;2023-02-15T09:32:36;3.90;99.90
28247;DHT22;66191;53.178;22.058;2023-02-15T09:35:07;4.00;99.90
28247;DHT22;66191;53.178;22.058;2023-02-15T09:37:37;4.00;99.90
28247;DHT22;66191;53.178;22.058;2023-02-15T09:40:08;4.00;99.90
28247;DHT22;66191;53.178;22.058;2023-02-15T09:42:51;4.00;99.90
28247;DHT22;66191;53.178;22.058;2023-02-15T09:48:22;4.10;99.90
28247;DHT22;66191;53.178;22.058;2023-02-15T09:50:59;4.00;99.90
28247;DHT22;66191;53.178;22.058;2023-02-15T09:53:45;4.00;99.90
28247;DHT22;66191;53.178;22.058;2023-02-15T09:56:22;4.00;99.90
28247;DHT22;66191;53.178;22.058;2023-02-15T09:59:02;4.10;99.90
28247;DHT22;66191;53.178;22.058;2023-02-15T10:01:37;4.10;99.90
28247;DHT22;66191;53.178;22.058;2023-02-15T10:04:17;4.10;99.90
28247;DHT22;66191;53.178;22.058;2023-02-15T10:06:52;4.10;99.90
28247;DHT22;66191;53.178;22.058;2023-02-15T10:09:32;4.10;99.90
28247;DHT22;66191;53.178;22.058;2023-02-15T10:12:11;4.10;99.90
28247;DHT22;66191;53.178;22.058;2023-02-15T10:14:59;4.10;99.90
28247;DHT22;66191;53.178;22.058;2023-02-15T10:17:40;4.10;99.90
28247;DHT22;66191;53.178;22.058;2023-02-15T10:20:18;4.10;99.90
28247;DHT22;66191;53.178;22.058;2023-02-15T10:22:59;4.20;99.90
28247;DHT22;66191;53.178;22.058;2023-02-15T10:25:35;4.20;99.90
28247;DHT22;66191;53.178;22.058;2023-02-15T10:28:11;4.20;99.90
28247;DHT22;66191;53.178;22.058;2023-02-15T10:30:49;4.20;99.90
28247;DHT22;66191;53.178;22.058;2023-02-15T10:33:27;4.20;99.90
28247;DHT22;66191;53.178;22.058;2023-02-15T10:36:05;4.20;99.90
28247;DHT22;66191;53.178;22.058;2023-02-15T10:38:37;4.30;99.90
28247;DHT22;66191;53.178;22.058;2023-02-15T10:41:15;4.20;99.90
28247;DHT22;66191;53.178;22.058;2023-02-15T10:43:56;4.30;99.90
28247;DHT22;66191;53.178;22.058;2023-02-15T10:46:38;4.20;99.90
28247;DHT22;66191;53.178;22.058;2023-02-15T10:49:16;4.30;99.90
28247;DHT22;66191;53.178;22.058;2023-02-15T10:51:56;4.30;99.90
28247;DHT22;66191;53.178;22.058;2023-02-15T10:54:30;4.30;99.90
28247;DHT22;66191;53.178;22.058;2023-02-15T10:57:06;4.30;99.90
28247;DHT22;66191;53.178;22.058;2023-02-15T10:59:47;4.30;99.90
28247;DHT22;66191;53.178;22.058;2023-02-15T11:02:30;4.40;99.90
28247;DHT22;66191;53.178;22.058;2023-02-15T11:05:14;4.40;99.90
28247;DHT22;66191;53.178;22.058;2023-02-15T11:07:46;4.30;99.90
28247;DHT22;66191;53.178;22.058;2023-02-15T11:10:22;4.30;99.90
28247;DHT22;66191;53.178;22.058;2023-02-15T11:12:55;4.40;99.90
28247;DHT22;66191;53.178;22.058;2023-02-15T11:15:29;4.40;99.90
28247;DHT22;66191;53.178;22.058;2023-02-15T11:18:05;4.40;99.90
28247;DHT22;66191;53.178;22.058;2023-02-15T11:20:42;4.40;99.80
28247;DHT22;66191;53.178;22.058;2023-02-15T11:23:14;4.40;99.90
28247;DHT22;66191;53.178;22.058;2023-02-15T11:25:46;4.40;99.80
28247;DHT22;66191;53.178;22.058;2023-02-15T11:28:18;4.40;99.90
28247;DHT22;66191;53.178;22.058;2023-02-15T11:30:51;4.40;99.60
28247;DHT22;66191;53.178;22.058;2023-02-15T11:33:27;4.40;99.40
28247;DHT22;66191;53.178;22.058;2023-02-15T11:36:00;4.40;99.40
28247;DHT22;66191;53.178;22.058;2023-02-15T11:38:32;4.40;99.60
28247;DHT22;66191;53.178;22.058;2023-02-15T11:41:07;4.40;99.40
28247;DHT22;66191;53.178;22.058;2023-02-15T11:43:41;4.50;99.40
28247;DHT22;66191;53.178;22.058;2023-02-15T11:46:16;4.40;99.50
28247;DHT22;66191;53.178;22.058;2023-02-15T11:48:51;4.50;99.50
28247;DHT22;66191;53.178;22.058;2023-02-15T11:51:21;4.40;99.20
28247;DHT22;66191;53.178;22.058;2023-02-15T11:53:53;4.40;99.40
28247;DHT22;66191;53.178;22.058;2023-02-15T11:56:24;4.40;99.60
28247;DHT22;66191;53.178;22.058;2023-02-15T11:58:56;4.40;99.70
28247;DHT22;66191;53.178;22.058;2023-02-15T12:01:29;4.40;99.40
28247;DHT22;66191;53.178;22.058;2023-02-15T12:04:04;4.40;99.60
28247;DHT22;66191;53.178;22.058;2023-02-15T12:06:38;4.40;99.60
28247;DHT22;66191;53.178;22.058;2023-02-15T12:09:14;4.40;99.60
28247;DHT22;66191;53.178;22.058;2023-02-15T12:11:49;4.40;99.50
28247;DHT22;66191;53.178;22.058;2023-02-15T12:14:20;4.40;99.40
28247;DHT22;66191;53.178;22.058;2023-02-15T12:16:51;4.40;99.50
28247;DHT22;66191;53.178;22.058;2023-02-15T12:19:28;4.40;99.50
28247;DHT22;66191;53.178;22.058;2023-02-15T12:21:59;4.40;99.60
28247;DHT22;66191;53.178;22.058;2023-02-15T12:24:32;4.40;99.60
28247;DHT22;66191;53.178;22.058;2023-02-15T12:27:03;4.50;99.60
28247;DHT22;66191;53.178;22.058;2023-02-15T12:29:35;4.50;99.50
28247;DHT22;66191;53.178;22.058;2023-02-15T12:32:11;4.50;99.60
28247;DHT22;66191;53.178;22.058;2023-02-15T12:34:49;4.50;99.40
28247;DHT22;66191;53.178;22.058;2023-02-15T12:37:21;4.50;99.70
28247;DHT22;66191;53.178;22.058;2023-02-15T12:39:54;4.50;99.60
28247;DHT22;66191;53.178;22.058;2023-02-15T12:42:26;4.50;99.50
28247;DHT22;66191;53.178;22.058;2023-02-15T12:44:58;4.60;99.60
28247;DHT22;66191;53.178;22.058;2023-02-15T12:47:29;4.50;99.70
28247;DHT22;66191;53.178;22.058;2023-02-15T12:50:07;4.50;99.50
28247;DHT22;66191;53.178;22.058;2023-02-15T12:52:44;4.60;99.70
28247;DHT22;66191;53.178;22.058;2023-02-15T12:55:20;4.60;99.70
28247;DHT22;66191;53.178;22.058;2023-02-15T12:58:04;4.60;99.60
28247;DHT22;66191;53.178;22.058;2023-02-15T13:00:38;4.60;99.70
28247;DHT22;66191;53.178;22.058;2023-02-15T13:03:15;4.60;99.80
28247;DHT22;66191;53.178;22.058;2023-02-15T13:05:50;4.60;99.70
28247;DHT22;66191;53.178;22.058;2023-02-15T13:08:21;4.60;99.60
28247;DHT22;66191;53.178;22.058;2023-02-15T13:10:54;4.60;99.80
28247;DHT22;66191;53.178;22.058;2023-02-15T13:13:25;4.60;99.80
28247;DHT22;66191;53.178;22.058;2023-02-15T13:15:58;4.60;99.70
28247;DHT22;66191;53.178;22.058;2023-02-15T13:18:32;4.60;99.60
28247;DHT22;66191;53.178;22.058;2023-02-15T13:21:10;4.50;99.80
28247;DHT22;66191;53.178;22.058;2023-02-15T13:23:43;4.60;99.80
28247;DHT22;66191;53.178;22.058;2023-02-15T13:26:16;4.50;99.80
28247;DHT22;66191;53.178;22.058;2023-02-15T13:28:51;4.50;99.90
28247;DHT22;66191;53.178;22.058;2023-02-15T13:31:24;4.50;99.90
28247;DHT22;66191;53.178;22.058;2023-02-15T13:34:00;4.50;99.90
28247;DHT22;66191;53.178;22.058;2023-02-15T13:36:37;4.50;99.90
28247;DHT22;66191;53.178;22.058;2023-02-15T13:39:13;4.50;99.90
28247;DHT22;66191;53.178;22.058;2023-02-15T13:41:57;4.50;99.90
28247;DHT22;66191;53.178;22.058;2023-02-15T13:44:40;4.60;99.90
28247;DHT22;66191;53.178;22.058;2023-02-15T13:47:18;4.60;99.90
28247;DHT22;66191;53.178;22.058;2023-02-15T13:49:56;4.60;99.90
28247;DHT22;66191;53.178;22.058;2023-02-15T13:52:34;4.60;99.90
28247;DHT22;66191;53.178;22.058;2023-02-15T13:55:15;4.60;99.90
28247;DHT22;66191;53.178;22.058;2023-02-15T14:00:36;4.60;99.90
28247;DHT22;66191;53.178;22.058;2023-02-15T14:03:14;4.60;99.90
28247;DHT22;66191;53.178;22.058;2023-02-15T14:05:57;4.60;99.90
28247;DHT22;66191;53.178;22.058;2023-02-15T14:08:40;4.60;99.90
28247;DHT22;66191;53.178;22.058;2023-02-15T14:11:16;4.60;99.90
28247;DHT22;66191;53.178;22.058;2023-02-15T14:14:01;4.50;99.90
28247;DHT22;66191;53.178;22.058;2023-02-15T14:16:37;4.40;99.90
28247;DHT22;66191;53.178;22.058;2023-02-15T14:19:32;4.50;99.90
28247;DHT22;66191;53.178;22.058;2023-02-15T14:22:08;4.50;99.90
28247;DHT22;66191;53.178;22.058;2023-02-15T14:24:44;4.40;99.90
28247;DHT22;66191;53.178;22.058;2023-02-15T14:27:20;4.50;99.90
28247;DHT22;66191;53.178;22.058;2023-02-15T14:29:53;4.50;99.90
28247;DHT22;66191;53.178;22.058;2023-02-15T14:32:26;4.40;99.90
28247;DHT22;66191;53.178;22.058;2023-02-15T14:35:00;4.40;99.90
28247;DHT22;66191;53.178;22.058;2023-02-15T14:37:35;4.40;99.90
28247;DHT22;66191;53.178;22.058;2023-02-15T14:40:17;4.40;99.90
28247;DHT22;66191;53.178;22.058;2023-02-15T14:43:04;4.40;99.90
28247;DHT22;66191;53.178;22.058;2023-02-15T14:45:38;4.40;99.90
28247;DHT22;66191;53.178;22.058;2023-02-15T14:48:12;4.40;99.90
28247;DHT22;66191;53.178;22.058;2023-02-15T14:50:45;4.40;99.90
28247;DHT22;66191;53.178;22.058;2023-02-15T14:56:17;4.40;99.90
28247;DHT22;66191;53.178;22.058;2023-02-15T15:01:50;4.30;99.90
28247;DHT22;66191;53.178;22.058;2023-02-15T15:04:22;4.30;99.90
28247;DHT22;66191;53.178;22.058;2023-02-15T15:06:59;4.40;99.90
28247;DHT22;66191;53.178;22.058;2023-02-15T15:09:30;4.30;99.90
28247;DHT22;66191;53.178;22.058;2023-02-15T15:15:04;4.30;99.90
28247;DHT22;66191;53.178;22.058;2023-02-15T15:28:53;4.30;99.90
28247;DHT22;66191;53.178;22.058;2023-02-15T15:31:27;4.20;99.90
28247;DHT22;66191;53.178;22.058;2023-02-15T15:34:18;4.20;99.90
28247;DHT22;66191;53.178;22.058;2023-02-15T15:42:29;4.20;99.90
28247;DHT22;66191;53.178;22.058;2023-02-15T15:47:57;4.20;99.90
28247;DHT22;66191;53.178;22.058;2023-02-15T15:50:34;4.20;99.90
28247;DHT22;66191;53.178;22.058;2023-02-15T15:53:04;4.20;99.90
28247;DHT22;66191;53.178;22.058;2023-02-15T15:55:35;4.20;99.90
28247;DHT22;66191;53.178;22.058;2023-02-15T15:58:06;4.20;99.90
28247;DHT22;66191;53.178;22.058;2023-02-15T16:00:39;4.20;99.90
28247;DHT22;66191;53.178;22.058;2023-02-15T16:03:16;4.20;99.90
28247;DHT22;66191;53.178;22.058;2023-02-15T16:05:50;4.30;99.90
28247;DHT22;66191;53.178;22.058;2023-02-15T16:08:26;4.30;99.90
28247;DHT22;66191;53.178;22.058;2023-02-15T16:10:58;4.20;99.90
28247;DHT22;66191;53.178;22.058;2023-02-15T16:13:29;4.20;99.90
28247;DHT22;66191;53.178;22.058;2023-02-15T16:16:01;4.20;99.90
28247;DHT22;66191;53.178;22.058;2023-02-15T16:18:36;4.20;99.90
28247;DHT22;66191;53.178;22.058;2023-02-15T16:21:13;4.10;99.90
28247;DHT22;66191;53.178;22.058;2023-02-15T16:23:50;4.20;99.90
28247;DHT22;66191;53.178;22.058;2023-02-15T16:26:29;4.10;99.90
28247;DHT22;66191;53.178;22.058;2023-02-15T16:29:12;4.20;99.90
28247;DHT22;66191;53.178;22.058;2023-02-15T16:31:45;4.20;99.90
28247;DHT22;66191;53.178;22.058;2023-02-15T16:34:28;4.20;99.90
28247;DHT22;66191;53.178;22.058;2023-02-15T16:37:12;4.20;99.90
28247;DHT22;66191;53.178;22.058;2023-02-15T16:39:45;4.20;99.90
28247;DHT22;66191;53.178;22.058;2023-02-15T16:42:16;4.20;99.90
28247;DHT22;66191;53.178;22.058;2023-02-15T16:44:48;4.20;99.90
28247;DHT22;66191;53.178;22.058;2023-02-15T16:47:20;4.20;99.90
28247;DHT22;66191;53.178;22.058;2023-02-15T16:49:55;4.20;99.90
28247;DHT22;66191;53.178;22.058;2023-02-15T16:52:28;4.20;99.90